sensor_id;sensor_type;location;lat;lon;timestamp;temperature;humidity
63299;DHT22;54535;52.138;5.398;2022-07-01T00:00:46;16.40;99.40
63299;DHT22;54535;52.138;5.398;2022-07-01T00:03:13;16.40;99.30
63299;DHT22;54535;52.138;5.398;2022-07-01T00:05:40;16.40;99.30
63299;DHT22;54535;52.138;5.398;2022-07-01T00:08:06;16.40;99.10
63299;DHT22;54535;52.138;5.398;2022-07-01T00:10:33;16.50;99.20
63299;DHT22;54535;52.138;5.398;2022-07-01T00:13:02;16.50;99.20
63299;DHT22;54535;52.138;5.398;2022-07-01T00:15:29;16.50;99.20
63299;DHT22;54535;52.138;5.398;2022-07-01T00:17:56;16.50;99.10
63299;DHT22;54535;52.138;5.398;2022-07-01T00:20:23;16.50;99.10
63299;DHT22;54535;52.138;5.398;2022-07-01T00:22:50;16.60;99.20
63299;DHT22;54535;52.138;5.398;2022-07-01T00:25:16;16.60;99.10
63299;DHT22;54535;52.138;5.398;2022-07-01T00:27:43;16.60;99.00
63299;DHT22;54535;52.138;5.398;2022-07-01T00:30:10;16.60;98.90
63299;DHT22;54535;52.138;5.398;2022-07-01T00:32:37;16.60;98.80
63299;DHT22;54535;52.138;5.398;2022-07-01T00:35:04;16.60;98.80
63299;DHT22;54535;52.138;5.398;2022-07-01T00:37:31;16.50;98.80
63299;DHT22;54535;52.138;5.398;2022-07-01T00:39:58;16.40;98.80
63299;DHT22;54535;52.138;5.398;2022-07-01T00:42:25;16.40;99.10
63299;DHT22;54535;52.138;5.398;2022-07-01T00:44:52;16.20;99.00
63299;DHT22;54535;52.138;5.398;2022-07-01T00:47:18;16.10;99.30
63299;DHT22;54535;52.138;5.398;2022-07-01T00:49:45;16.00;99.30
63299;DHT22;54535;52.138;5.398;2022-07-01T00:52:12;16.00;99.40
63299;DHT22;54535;52.138;5.398;2022-07-01T00:54:40;16.00;99.50
63299;DHT22;54535;52.138;5.398;2022-07-01T00:57:09;15.90;99.90
63299;DHT22;54535;52.138;5.398;2022-07-01T00:59:40;15.90;99.80
63299;DHT22;54535;52.138;5.398;2022-07-01T01:02:08;15.90;99.90
63299;DHT22;54535;52.138;5.398;2022-07-01T01:04:35;15.90;99.90
63299;DHT22;54535;52.138;5.398;2022-07-01T01:07:03;15.90;99.90
63299;DHT22;54535;52.138;5.398;2022-07-01T01:09:30;15.90;99.90
63299;DHT22;54535;52.138;5.398;2022-07-01T01:11:57;15.90;99.90
63299;DHT22;54535;52.138;5.398;2022-07-01T01:14:25;15.90;99.90
63299;DHT22;54535;52.138;5.398;2022-07-01T01:16:52;15.90;99.90
63299;DHT22;54535;52.138;5.398;2022-07-01T01:19:19;15.90;99.90
63299;DHT22;54535;52.138;5.398;2022-07-01T01:21:46;15.80;99.90
63299;DHT22;54535;52.138;5.398;2022-07-01T01:24:13;15.90;99.90
63299;DHT22;54535;52.138;5.398;2022-07-01T01:26:40;15.90;99.90
63299;DHT22;54535;52.138;5.398;2022-07-01T01:29:06;15.90;99.90
63299;DHT22;54535;52.138;5.398;2022-07-01T01:31:33;15.90;99.90
63299;DHT22;54535;52.138;5.398;2022-07-01T01:34:00;15.90;99.90
63299;DHT22;54535;52.138;5.398;2022-07-01T01:36:27;15.90;99.90
63299;DHT22;54535;52.138;5.398;2022-07-01T01:38:54;15.90;99.90
63299;DHT22;54535;52.138;5.398;2022-07-01T01:41:25;15.90;99.90
63299;DHT22;54535;52.138;5.398;2022-07-01T01:43:51;15.90;99.90
63299;DHT22;54535;52.138;5.398;2022-07-01T01:46:18;16.00;99.90
63299;DHT22;54535;52.138;5.398;2022-07-01T01:48:45;16.00;99.90
63299;DHT22;54535;52.138;5.398;2022-07-01T01:51:12;15.90;99.90
63299;DHT22;54535;52.138;5.398;2022-07-01T01:53:38;15.90;99.90
63299;DHT22;54535;52.138;5.398;2022-07-01T01:56:05;15.90;99.90
63299;DHT22;54535;52.138;5.398;2022-07-01T01:58:32;15.90;99.90
63299;DHT22;54535;52.138;5.398;2022-07-01T02:00:59;15.90;99.90
63299;DHT22;54535;52.138;5.398;2022-07-01T02:03:26;15.90;99.90
63299;DHT22;54535;52.138;5.398;2022-07-01T02:05:53;15.80;99.90
63299;DHT22;54535;52.138;5.398;2022-07-01T02:08:20;15.80;99.90
63299;DHT22;54535;52.138;5.398;2022-07-01T02:10:47;15.90;99.90
63299;DHT22;54535;52.138;5.398;2022-07-01T02:13:18;15.90;99.90
63299;DHT22;54535;52.138;5.398;2022-07-01T02:15:45;15.80;99.90
63299;DHT22;54535;52.138;5.398;2022-07-01T02:18:12;15.70;99.90
63299;DHT22;54535;52.138;5.398;2022-07-01T02:20:39;15.70;99.90
63299;DHT22;54535;52.138;5.398;2022-07-01T02:23:05;15.70;99.90
63299;DHT22;54535;52.138;5.398;2022-07-01T02:25:34;15.60;99.90
63299;DHT22;54535;52.138;5.398;2022-07-01T02:28:01;15.60;99.90
63299;DHT22;54535;52.138;5.398;2022-07-01T02:30:28;15.60;99.90
63299;DHT22;54535;52.138;5.398;2022-07-01T02:32:57;15.50;99.90
63299;DHT22;54535;52.138;5.398;2022-07-01T02:35:23;15.50;99.90
63299;DHT22;54535;52.138;5.398;2022-07-01T02:37:50;15.40;99.90
63299;DHT22;54535;52.138;5.398;2022-07-01T02:40:17;15.40;99.90
63299;DHT22;54535;52.138;5.398;2022-07-01T02:42:43;15.30;99.90
63299;DHT22;54535;52.138;5.398;2022-07-01T02:45:10;15.20;99.90
63299;DHT22;54535;52.138;5.398;2022-07-01T02:47:38;15.20;99.90
63299;DHT22;54535;52.138;5.398;2022-07-01T02:50:08;15.10;99.90
63299;DHT22;54535;52.138;5.398;2022-07-01T02:52:36;15.10;99.90
63299;DHT22;54535;52.138;5.398;2022-07-01T02:55:05;15.00;99.90
63299;DHT22;54535;52.138;5.398;2022-07-01T02:57:33;15.00;99.90
63299;DHT22;54535;52.138;5.398;2022-07-01T02:59:59;14.90;99.90
63299;DHT22;54535;52.138;5.398;2022-07-01T03:02:27;14.90;99.90
63299;DHT22;54535;52.138;5.398;2022-07-01T03:04:53;14.90;99.90
63299;DHT22;54535;52.138;5.398;2022-07-01T03:07:20;14.90;99.90
63299;DHT22;54535;52.138;5.398;2022-07-01T03:09:48;15.00;99.90
63299;DHT22;54535;52.138;5.398;2022-07-01T03:12:15;15.00;99.90
63299;DHT22;54535;52.138;5.398;2022-07-01T03:15:03;15.00;99.90
63299;DHT22;54535;52.138;5.398;2022-07-01T03:17:31;15.00;99.90
63299;DHT22;54535;52.138;5.398;2022-07-01T03:20:05;15.00;99.90
63299;DHT22;54535;52.138;5.398;2022-07-01T03:22:33;15.00;99.90
63299;DHT22;54535;52.138;5.398;2022-07-01T03:25:00;15.00;99.90
63299;DHT22;54535;52.138;5.398;2022-07-01T03:27:27;15.00;99.90
63299;DHT22;54535;52.138;5.398;2022-07-01T03:29:54;15.00;99.90
63299;DHT22;54535;52.138;5.398;2022-07-01T03:32:20;15.00;99.90
63299;DHT22;54535;52.138;5.398;2022-07-01T03:34:49;14.90;99.90
63299;DHT22;54535;52.138;5.398;2022-07-01T03:37:18;14.90;99.90
63299;DHT22;54535;52.138;5.398;2022-07-01T03:39:45;14.90;99.90
63299;DHT22;54535;52.138;5.398;2022-07-01T03:42:12;14.90;99.90
63299;DHT22;54535;52.138;5.398;2022-07-01T03:44:39;14.90;99.90
63299;DHT22;54535;52.138;5.398;2022-07-01T03:47:07;15.00;99.90
63299;DHT22;54535;52.138;5.398;2022-07-01T03:49:34;15.00;99.90
63299;DHT22;54535;52.138;5.398;2022-07-01T03:52:04;15.00;99.90
63299;DHT22;54535;52.138;5.398;2022-07-01T03:54:31;15.00;99.90
63299;DHT22;54535;52.138;5.398;2022-07-01T03:57:08;15.00;99.90
63299;DHT22;54535;52.138;5.398;2022-07-01T03:59:39;15.00;99.90
63299;DHT22;54535;52.138;5.398;2022-07-01T04:02:07;15.00;99.90
63299;DHT22;54535;52.138;5.398;2022-07-01T04:04:35;15.00;99.90
63299;DHT22;54535;52.138;5.398;2022-07-01T04:07:04;15.00;99.90
63299;DHT22;54535;52.138;5.398;2022-07-01T04:09:32;15.00;99.90
63299;DHT22;54535;52.138;5.398;2022-07-01T04:11:59;15.10;99.90
63299;DHT22;54535;52.138;5.398;2022-07-01T04:14:26;15.00;99.90
63299;DHT22;54535;52.138;5.398;2022-07-01T04:16:53;14.90;99.90
63299;DHT22;54535;52.138;5.398;2022-07-01T04:19:20;14.90;99.90
63299;DHT22;54535;52.138;5.398;2022-07-01T04:21:47;14.90;99.90
63299;DHT22;54535;52.138;5.398;2022-07-01T04:24:32;14.90;99.90
63299;DHT22;54535;52.138;5.398;2022-07-01T04:27:00;14.90;99.90
63299;DHT22;54535;52.138;5.398;2022-07-01T04:29:27;14.90;99.90
63299;DHT22;54535;52.138;5.398;2022-07-01T04:31:56;14.90;99.90
63299;DHT22;54535;52.138;5.398;2022-07-01T04:34:24;14.90;99.90
63299;DHT22;54535;52.138;5.398;2022-07-01T04:36:51;14.90;99.90
63299;DHT22;54535;52.138;5.398;2022-07-01T04:39:18;14.90;99.90
63299;DHT22;54535;52.138;5.398;2022-07-01T04:41:45;14.90;99.90
63299;DHT22;54535;52.138;5.398;2022-07-01T04:44:29;14.90;99.90
63299;DHT22;54535;52.138;5.398;2022-07-01T04:46:57;14.90;99.90
63299;DHT22;54535;52.138;5.398;2022-07-01T04:49:24;14.80;99.90
63299;DHT22;54535;52.138;5.398;2022-07-01T04:51:51;14.80;99.90
63299;DHT22;54535;52.138;5.398;2022-07-01T04:54:18;14.80;99.90
63299;DHT22;54535;52.138;5.398;2022-07-01T04:56:45;14.80;99.90
63299;DHT22;54535;52.138;5.398;2022-07-01T04:59:13;14.80;99.90
63299;DHT22;54535;52.138;5.398;2022-07-01T05:01:43;14.80;99.90
63299;DHT22;54535;52.138;5.398;2022-07-01T05:04:11;14.70;99.90
63299;DHT22;54535;52.138;5.398;2022-07-01T05:06:38;14.70;99.90
63299;DHT22;54535;52.138;5.398;2022-07-01T05:09:05;14.80;99.90
63299;DHT22;54535;52.138;5.398;2022-07-01T05:11:32;14.80;99.90
63299;DHT22;54535;52.138;5.398;2022-07-01T05:13:59;14.80;99.90
63299;DHT22;54535;52.138;5.398;2022-07-01T05:16:26;14.80;99.90
63299;DHT22;54535;52.138;5.398;2022-07-01T05:18:53;14.80;99.90
63299;DHT22;54535;52.138;5.398;2022-07-01T05:21:38;14.90;99.90
63299;DHT22;54535;52.138;5.398;2022-07-01T05:24:24;14.90;99.90
63299;DHT22;54535;52.138;5.398;2022-07-01T05:26:51;15.00;99.90
63299;DHT22;54535;52.138;5.398;2022-07-01T05:29:18;15.00;99.90
63299;DHT22;54535;52.138;5.398;2022-07-01T05:31:45;15.00;99.90
63299;DHT22;54535;52.138;5.398;2022-07-01T05:34:12;15.00;99.90
63299;DHT22;54535;52.138;5.398;2022-07-01T05:36:39;15.00;99.90
63299;DHT22;54535;52.138;5.398;2022-07-01T05:39:05;15.10;99.90
63299;DHT22;54535;52.138;5.398;2022-07-01T05:41:32;15.10;99.90
63299;DHT22;54535;52.138;5.398;2022-07-01T05:44:01;15.10;99.90
63299;DHT22;54535;52.138;5.398;2022-07-01T05:46:28;15.10;99.90
63299;DHT22;54535;52.138;5.398;2022-07-01T05:48:54;15.10;99.90
63299;DHT22;54535;52.138;5.398;2022-07-01T05:51:21;15.00;99.90
63299;DHT22;54535;52.138;5.398;2022-07-01T05:53:48;15.00;99.90
63299;DHT22;54535;52.138;5.398;2022-07-01T05:56:15;15.00;99.90
63299;DHT22;54535;52.138;5.398;2022-07-01T05:58:42;15.00;99.90
63299;DHT22;54535;52.138;5.398;2022-07-01T06:01:09;15.00;99.90
63299;DHT22;54535;52.138;5.398;2022-07-01T06:03:36;15.00;99.90
63299;DHT22;54535;52.138;5.398;2022-07-01T06:06:03;15.00;99.90
63299;DHT22;54535;52.138;5.398;2022-07-01T06:08:30;15.00;99.90
63299;DHT22;54535;52.138;5.398;2022-07-01T06:10:57;15.10;99.90
63299;DHT22;54535;52.138;5.398;2022-07-01T06:13:23;15.10;99.90
63299;DHT22;54535;52.138;5.398;2022-07-01T06:15:50;15.10;99.90
63299;DHT22;54535;52.138;5.398;2022-07-01T06:18:17;15.20;99.90
63299;DHT22;54535;52.138;5.398;2022-07-01T06:20:44;15.10;99.90
63299;DHT22;54535;52.138;5.398;2022-07-01T06:23:11;15.20;99.90
63299;DHT22;54535;52.138;5.398;2022-07-01T06:25:37;15.10;99.90
63299;DHT22;54535;52.138;5.398;2022-07-01T06:28:04;15.10;99.90
63299;DHT22;54535;52.138;5.398;2022-07-01T06:30:31;15.20;99.90
63299;DHT22;54535;52.138;5.398;2022-07-01T06:32:58;15.20;99.90
63299;DHT22;54535;52.138;5.398;2022-07-01T06:35:25;15.10;99.90
63299;DHT22;54535;52.138;5.398;2022-07-01T06:37:52;15.20;99.90
63299;DHT22;54535;52.138;5.398;2022-07-01T06:40:23;15.20;99.90
63299;DHT22;54535;52.138;5.398;2022-07-01T06:42:50;15.20;99.90
63299;DHT22;54535;52.138;5.398;2022-07-01T06:45:17;15.30;99.90
63299;DHT22;54535;52.138;5.398;2022-07-01T06:47:44;15.30;99.90
63299;DHT22;54535;52.138;5.398;2022-07-01T06:50:11;15.20;99.90
63299;DHT22;54535;52.138;5.398;2022-07-01T06:52:38;15.20;99.90
63299;DHT22;54535;52.138;5.398;2022-07-01T06:55:05;15.30;99.90
63299;DHT22;54535;52.138;5.398;2022-07-01T06:57:31;15.30;99.90
63299;DHT22;54535;52.138;5.398;2022-07-01T06:59:58;15.30;99.90
63299;DHT22;54535;52.138;5.398;2022-07-01T07:02:25;15.40;99.90
63299;DHT22;54535;52.138;5.398;2022-07-01T07:04:55;15.40;99.90
63299;DHT22;54535;52.138;5.398;2022-07-01T07:07:26;15.60;99.90
63299;DHT22;54535;52.138;5.398;2022-07-01T07:09:53;15.60;99.90
63299;DHT22;54535;52.138;5.398;2022-07-01T07:12:20;15.70;99.90
63299;DHT22;54535;52.138;5.398;2022-07-01T07:14:46;15.80;99.90
63299;DHT22;54535;52.138;5.398;2022-07-01T07:17:13;15.90;99.90
63299;DHT22;54535;52.138;5.398;2022-07-01T07:19:40;15.90;99.90
63299;DHT22;54535;52.138;5.398;2022-07-01T07:22:07;15.90;99.90
63299;DHT22;54535;52.138;5.398;2022-07-01T07:24:33;16.00;99.90
63299;DHT22;54535;52.138;5.398;2022-07-01T07:27:00;16.10;99.90
63299;DHT22;54535;52.138;5.398;2022-07-01T07:29:27;16.20;99.90
63299;DHT22;54535;52.138;5.398;2022-07-01T07:31:54;16.20;99.90
63299;DHT22;54535;52.138;5.398;2022-07-01T07:34:21;16.30;99.90
63299;DHT22;54535;52.138;5.398;2022-07-01T07:36:48;16.40;99.90
63299;DHT22;54535;52.138;5.398;2022-07-01T07:39:14;16.40;99.90
63299;DHT22;54535;52.138;5.398;2022-07-01T07:41:41;16.50;99.90
63299;DHT22;54535;52.138;5.398;2022-07-01T07:44:08;16.50;99.90
63299;DHT22;54535;52.138;5.398;2022-07-01T07:46:35;16.60;99.90
63299;DHT22;54535;52.138;5.398;2022-07-01T07:49:01;16.60;99.90
63299;DHT22;54535;52.138;5.398;2022-07-01T07:51:28;16.60;99.90
63299;DHT22;54535;52.138;5.398;2022-07-01T07:53:55;16.70;99.90
63299;DHT22;54535;52.138;5.398;2022-07-01T07:56:22;16.70;99.20
63299;DHT22;54535;52.138;5.398;2022-07-01T07:58:48;16.70;99.40
63299;DHT22;54535;52.138;5.398;2022-07-01T08:01:15;16.70;99.60
63299;DHT22;54535;52.138;5.398;2022-07-01T08:03:42;16.70;99.20
63299;DHT22;54535;52.138;5.398;2022-07-01T08:06:10;16.70;99.30
63299;DHT22;54535;52.138;5.398;2022-07-01T08:08:36;16.80;99.40
63299;DHT22;54535;52.138;5.398;2022-07-01T08:11:03;16.90;99.40
63299;DHT22;54535;52.138;5.398;2022-07-01T08:13:30;17.00;98.90
63299;DHT22;54535;52.138;5.398;2022-07-01T08:15:57;17.00;98.00
63299;DHT22;54535;52.138;5.398;2022-07-01T08:18:24;17.00;97.80
63299;DHT22;54535;52.138;5.398;2022-07-01T08:20:51;17.10;97.70
63299;DHT22;54535;52.138;5.398;2022-07-01T08:23:21;17.20;97.90
63299;DHT22;54535;52.138;5.398;2022-07-01T08:25:50;17.20;97.70
63299;DHT22;54535;52.138;5.398;2022-07-01T08:28:17;17.30;97.10
63299;DHT22;54535;52.138;5.398;2022-07-01T08:30:44;17.20;96.70
63299;DHT22;54535;52.138;5.398;2022-07-01T08:33:11;17.30;96.40
63299;DHT22;54535;52.138;5.398;2022-07-01T08:35:38;17.30;96.30
63299;DHT22;54535;52.138;5.398;2022-07-01T08:38:05;17.30;95.60
63299;DHT22;54535;52.138;5.398;2022-07-01T08:40:33;17.30;95.30
63299;DHT22;54535;52.138;5.398;2022-07-01T08:43:02;17.20;95.80
63299;DHT22;54535;52.138;5.398;2022-07-01T08:45:31;17.30;96.00
63299;DHT22;54535;52.138;5.398;2022-07-01T08:48:00;17.30;96.10
63299;DHT22;54535;52.138;5.398;2022-07-01T08:50:36;17.40;96.40
63299;DHT22;54535;52.138;5.398;2022-07-01T08:53:04;17.50;96.80
63299;DHT22;54535;52.138;5.398;2022-07-01T08:55:31;17.70;96.60
63299;DHT22;54535;52.138;5.398;2022-07-01T08:57:58;17.70;96.10
63299;DHT22;54535;52.138;5.398;2022-07-01T09:00:31;17.90;95.00
63299;DHT22;54535;52.138;5.398;2022-07-01T09:03:01;18.00;93.50
63299;DHT22;54535;52.138;5.398;2022-07-01T09:05:31;18.00;93.90
63299;DHT22;54535;52.138;5.398;2022-07-01T09:08:03;18.10;93.30
63299;DHT22;54535;52.138;5.398;2022-07-01T09:10:31;18.10;93.20
63299;DHT22;54535;52.138;5.398;2022-07-01T09:13:05;18.00;92.80
63299;DHT22;54535;52.138;5.398;2022-07-01T09:15:32;18.00;92.40
63299;DHT22;54535;52.138;5.398;2022-07-01T09:20:41;18.10;93.60
63299;DHT22;54535;52.138;5.398;2022-07-01T09:23:09;18.10;93.20
63299;DHT22;54535;52.138;5.398;2022-07-01T09:25:46;18.10;93.50
63299;DHT22;54535;52.138;5.398;2022-07-01T09:28:23;18.00;91.70
63299;DHT22;54535;52.138;5.398;2022-07-01T09:30:51;18.10;92.70
63299;DHT22;54535;52.138;5.398;2022-07-01T09:33:23;18.20;93.10
63299;DHT22;54535;52.138;5.398;2022-07-01T09:35:52;18.30;91.90
63299;DHT22;54535;52.138;5.398;2022-07-01T09:38:23;18.40;91.10
63299;DHT22;54535;52.138;5.398;2022-07-01T09:41:01;18.40;90.60
63299;DHT22;54535;52.138;5.398;2022-07-01T09:43:34;18.40;90.30
63299;DHT22;54535;52.138;5.398;2022-07-01T09:46:10;18.40;90.20
63299;DHT22;54535;52.138;5.398;2022-07-01T09:51:06;18.30;89.90
63299;DHT22;54535;52.138;5.398;2022-07-01T09:53:40;18.30;90.20
63299;DHT22;54535;52.138;5.398;2022-07-01T09:56:07;18.30;90.40
63299;DHT22;54535;52.138;5.398;2022-07-01T09:58:35;18.40;90.60
63299;DHT22;54535;52.138;5.398;2022-07-01T10:01:05;18.40;90.40
63299;DHT22;54535;52.138;5.398;2022-07-01T10:03:37;18.40;90.30
63299;DHT22;54535;52.138;5.398;2022-07-01T10:08:46;18.60;89.50
63299;DHT22;54535;52.138;5.398;2022-07-01T10:14:14;18.70;83.00
63299;DHT22;54535;52.138;5.398;2022-07-01T10:16:42;18.70;82.50
63299;DHT22;54535;52.138;5.398;2022-07-01T10:21:55;18.80;84.30
63299;DHT22;54535;52.138;5.398;2022-07-01T10:24:24;18.80;83.30
63299;DHT22;54535;52.138;5.398;2022-07-01T10:26:52;18.80;81.70
63299;DHT22;54535;52.138;5.398;2022-07-01T10:29:34;18.90;83.50
63299;DHT22;54535;52.138;5.398;2022-07-01T10:32:26;19.00;81.10
63299;DHT22;54535;52.138;5.398;2022-07-01T10:35:14;19.00;82.10
63299;DHT22;54535;52.138;5.398;2022-07-01T10:38:00;19.00;80.40
63299;DHT22;54535;52.138;5.398;2022-07-01T10:40:44;19.10;83.30
63299;DHT22;54535;52.138;5.398;2022-07-01T10:43:17;19.10;79.40
63299;DHT22;54535;52.138;5.398;2022-07-01T10:45:54;19.20;82.70
63299;DHT22;54535;52.138;5.398;2022-07-01T10:48:23;19.30;81.50
63299;DHT22;54535;52.138;5.398;2022-07-01T10:50:51;19.40;80.00
63299;DHT22;54535;52.138;5.398;2022-07-01T10:53:19;19.40;78.70
63299;DHT22;54535;52.138;5.398;2022-07-01T10:55:53;19.40;80.40
63299;DHT22;54535;52.138;5.398;2022-07-01T10:58:37;19.40;77.00
63299;DHT22;54535;52.138;5.398;2022-07-01T11:01:04;19.40;76.40
63299;DHT22;54535;52.138;5.398;2022-07-01T11:03:36;19.40;77.40
63299;DHT22;54535;52.138;5.398;2022-07-01T11:06:03;19.40;77.00
63299;DHT22;54535;52.138;5.398;2022-07-01T11:08:30;19.50;77.70
63299;DHT22;54535;52.138;5.398;2022-07-01T11:10:59;19.60;76.90
63299;DHT22;54535;52.138;5.398;2022-07-01T11:13:28;19.60;74.40
63299;DHT22;54535;52.138;5.398;2022-07-01T11:15:55;19.60;75.00
63299;DHT22;54535;52.138;5.398;2022-07-01T11:18:22;19.70;74.30
63299;DHT22;54535;52.138;5.398;2022-07-01T11:20:49;19.60;74.40
63299;DHT22;54535;52.138;5.398;2022-07-01T11:23:16;19.70;75.30
63299;DHT22;54535;52.138;5.398;2022-07-01T11:25:43;19.80;73.70
63299;DHT22;54535;52.138;5.398;2022-07-01T11:28:11;19.80;75.80
63299;DHT22;54535;52.138;5.398;2022-07-01T11:30:37;19.90;76.10
63299;DHT22;54535;52.138;5.398;2022-07-01T11:33:04;20.00;76.70
63299;DHT22;54535;52.138;5.398;2022-07-01T11:35:32;20.00;74.10
63299;DHT22;54535;52.138;5.398;2022-07-01T11:38:19;20.00;74.60
63299;DHT22;54535;52.138;5.398;2022-07-01T11:41:07;20.00;72.10
63299;DHT22;54535;52.138;5.398;2022-07-01T11:43:39;19.90;70.80
63299;DHT22;54535;52.138;5.398;2022-07-01T11:46:07;19.90;70.00
63299;DHT22;54535;52.138;5.398;2022-07-01T11:48:47;19.90;71.30
63299;DHT22;54535;52.138;5.398;2022-07-01T11:51:21;20.00;71.20
63299;DHT22;54535;52.138;5.398;2022-07-01T11:53:50;20.00;69.80
63299;DHT22;54535;52.138;5.398;2022-07-01T11:56:28;20.20;71.00
63299;DHT22;54535;52.138;5.398;2022-07-01T11:58:56;20.30;71.90
63299;DHT22;54535;52.138;5.398;2022-07-01T12:01:30;20.30;69.50
63299;DHT22;54535;52.138;5.398;2022-07-01T12:04:00;20.40;70.70
63299;DHT22;54535;52.138;5.398;2022-07-01T12:06:29;20.40;70.10
63299;DHT22;54535;52.138;5.398;2022-07-01T12:08:56;20.40;70.20
63299;DHT22;54535;52.138;5.398;2022-07-01T12:11:25;20.50;68.30
63299;DHT22;54535;52.138;5.398;2022-07-01T12:13:54;20.60;69.40
63299;DHT22;54535;52.138;5.398;2022-07-01T12:16:22;20.70;69.80
63299;DHT22;54535;52.138;5.398;2022-07-01T12:19:00;20.80;68.30
63299;DHT22;54535;52.138;5.398;2022-07-01T12:21:29;20.80;65.10
63299;DHT22;54535;52.138;5.398;2022-07-01T12:24:11;20.90;64.50
63299;DHT22;54535;52.138;5.398;2022-07-01T12:29:29;20.90;63.90
63299;DHT22;54535;52.138;5.398;2022-07-01T12:32:04;21.00;63.10
63299;DHT22;54535;52.138;5.398;2022-07-01T12:34:42;21.10;64.50
63299;DHT22;54535;52.138;5.398;2022-07-01T12:37:15;21.20;65.70
63299;DHT22;54535;52.138;5.398;2022-07-01T12:39:53;21.20;64.00
63299;DHT22;54535;52.138;5.398;2022-07-01T12:42:37;21.30;63.70
63299;DHT22;54535;52.138;5.398;2022-07-01T12:45:09;21.40;64.90
63299;DHT22;54535;52.138;5.398;2022-07-01T12:47:46;21.30;65.20
63299;DHT22;54535;52.138;5.398;2022-07-01T12:50:30;21.40;67.00
63299;DHT22;54535;52.138;5.398;2022-07-01T12:55:36;21.50;64.90
63299;DHT22;54535;52.138;5.398;2022-07-01T12:58:06;21.30;64.00
63299;DHT22;54535;52.138;5.398;2022-07-01T13:00:33;21.20;65.60
63299;DHT22;54535;52.138;5.398;2022-07-01T13:03:02;21.10;66.50
63299;DHT22;54535;52.138;5.398;2022-07-01T13:05:32;21.10;67.00
63299;DHT22;54535;52.138;5.398;2022-07-01T13:08:00;21.00;68.20
63299;DHT22;54535;52.138;5.398;2022-07-01T13:10:27;20.80;68.90
63299;DHT22;54535;52.138;5.398;2022-07-01T13:12:54;20.80;67.60
63299;DHT22;54535;52.138;5.398;2022-07-01T13:15:21;20.60;69.20
63299;DHT22;54535;52.138;5.398;2022-07-01T13:17:49;20.50;70.40
63299;DHT22;54535;52.138;5.398;2022-07-01T13:20:16;20.30;71.40
63299;DHT22;54535;52.138;5.398;2022-07-01T13:22:43;20.20;72.10
63299;DHT22;54535;52.138;5.398;2022-07-01T13:25:11;20.10;73.00
63299;DHT22;54535;52.138;5.398;2022-07-01T13:27:37;20.10;73.80
63299;DHT22;54535;52.138;5.398;2022-07-01T13:30:06;20.10;74.70
63299;DHT22;54535;52.138;5.398;2022-07-01T13:32:33;20.00;74.60
63299;DHT22;54535;52.138;5.398;2022-07-01T13:35:00;19.90;75.00
63299;DHT22;54535;52.138;5.398;2022-07-01T13:37:29;20.00;75.40
63299;DHT22;54535;52.138;5.398;2022-07-01T13:39:56;20.00;75.50
63299;DHT22;54535;52.138;5.398;2022-07-01T13:42:23;20.00;75.10
63299;DHT22;54535;52.138;5.398;2022-07-01T13:44:49;20.10;75.80
63299;DHT22;54535;52.138;5.398;2022-07-01T13:47:17;20.30;75.40
63299;DHT22;54535;52.138;5.398;2022-07-01T13:49:43;20.40;76.40
63299;DHT22;54535;52.138;5.398;2022-07-01T13:52:11;20.60;74.50
63299;DHT22;54535;52.138;5.398;2022-07-01T13:54:38;20.70;74.10
63299;DHT22;54535;52.138;5.398;2022-07-01T13:57:06;20.90;73.30
63299;DHT22;54535;52.138;5.398;2022-07-01T13:59:32;20.90;68.90
63299;DHT22;54535;52.138;5.398;2022-07-01T14:02:06;21.00;70.40
63299;DHT22;54535;52.138;5.398;2022-07-01T14:04:34;21.00;70.10
63299;DHT22;54535;52.138;5.398;2022-07-01T14:07:01;21.10;71.80
63299;DHT22;54535;52.138;5.398;2022-07-01T14:09:27;21.20;71.00
63299;DHT22;54535;52.138;5.398;2022-07-01T14:11:54;21.30;71.70
63299;DHT22;54535;52.138;5.398;2022-07-01T14:14:21;21.50;71.70
63299;DHT22;54535;52.138;5.398;2022-07-01T14:16:48;21.50;69.20
63299;DHT22;54535;52.138;5.398;2022-07-01T14:19:14;21.70;69.80
63299;DHT22;54535;52.138;5.398;2022-07-01T14:21:41;21.70;70.10
63299;DHT22;54535;52.138;5.398;2022-07-01T14:24:08;21.70;71.50
63299;DHT22;54535;52.138;5.398;2022-07-01T14:26:35;21.70;70.50
63299;DHT22;54535;52.138;5.398;2022-07-01T14:29:02;21.60;70.10
63299;DHT22;54535;52.138;5.398;2022-07-01T14:31:28;21.60;68.60
63299;DHT22;54535;52.138;5.398;2022-07-01T14:33:55;21.80;70.30
63299;DHT22;54535;52.138;5.398;2022-07-01T14:36:22;21.90;69.60
63299;DHT22;54535;52.138;5.398;2022-07-01T14:38:48;22.00;67.70
63299;DHT22;54535;52.138;5.398;2022-07-01T14:41:15;21.90;65.30
63299;DHT22;54535;52.138;5.398;2022-07-01T14:43:42;21.80;64.40
63299;DHT22;54535;52.138;5.398;2022-07-01T14:46:10;21.70;65.40
63299;DHT22;54535;52.138;5.398;2022-07-01T14:48:40;21.70;66.10
63299;DHT22;54535;52.138;5.398;2022-07-01T14:51:07;21.60;65.70
63299;DHT22;54535;52.138;5.398;2022-07-01T14:53:34;21.50;66.80
63299;DHT22;54535;52.138;5.398;2022-07-01T14:56:01;21.50;67.20
63299;DHT22;54535;52.138;5.398;2022-07-01T14:58:28;21.40;67.60
63299;DHT22;54535;52.138;5.398;2022-07-01T15:00:55;21.40;67.30
63299;DHT22;54535;52.138;5.398;2022-07-01T15:03:22;21.40;67.10
63299;DHT22;54535;52.138;5.398;2022-07-01T15:05:48;21.40;66.80
63299;DHT22;54535;52.138;5.398;2022-07-01T15:08:20;21.30;66.30
63299;DHT22;54535;52.138;5.398;2022-07-01T15:10:47;21.10;67.60
63299;DHT22;54535;52.138;5.398;2022-07-01T15:13:15;21.10;68.70
63299;DHT22;54535;52.138;5.398;2022-07-01T15:15:43;21.20;68.70
63299;DHT22;54535;52.138;5.398;2022-07-01T15:18:10;21.50;68.10
63299;DHT22;54535;52.138;5.398;2022-07-01T15:20:36;21.70;67.90
63299;DHT22;54535;52.138;5.398;2022-07-01T15:23:03;21.70;66.30
63299;DHT22;54535;52.138;5.398;2022-07-01T15:25:30;21.60;66.40
63299;DHT22;54535;52.138;5.398;2022-07-01T15:27:57;21.60;66.90
63299;DHT22;54535;52.138;5.398;2022-07-01T15:30:24;21.90;66.00
63299;DHT22;54535;52.138;5.398;2022-07-01T15:32:51;22.50;65.10
63299;DHT22;54535;52.138;5.398;2022-07-01T15:35:18;23.30;61.70
63299;DHT22;54535;52.138;5.398;2022-07-01T15:37:44;23.70;60.50
63299;DHT22;54535;52.138;5.398;2022-07-01T15:40:11;24.70;57.50
63299;DHT22;54535;52.138;5.398;2022-07-01T15:42:38;25.40;56.50
63299;DHT22;54535;52.138;5.398;2022-07-01T15:45:06;25.90;56.00
63299;DHT22;54535;52.138;5.398;2022-07-01T15:47:33;26.00;52.10
63299;DHT22;54535;52.138;5.398;2022-07-01T15:50:20;26.10;51.00
63299;DHT22;54535;52.138;5.398;2022-07-01T15:52:47;26.60;49.40
63299;DHT22;54535;52.138;5.398;2022-07-01T15:55:15;26.90;48.30
63299;DHT22;54535;52.138;5.398;2022-07-01T15:57:44;27.10;47.10